createdAt,value
2019-02-23T00:00:52.841Z,9.07
2019-02-23T00:03:18.828Z,9.17
2019-02-23T00:05:44.780Z,7.97
2019-02-23T00:08:10.780Z,8.13
2019-02-23T00:10:36.719Z,9.10
2019-02-23T00:13:02.694Z,7.70
2019-02-23T00:15:28.695Z,8.40
2019-02-23T00:17:54.652Z,8.70
2019-02-23T00:20:20.639Z,7.47
2019-02-23T00:22:46.603Z,8.50
2019-02-23T00:25:12.590Z,8.43
2019-02-23T00:27:38.577Z,9.00
2019-02-23T00:30:04.562Z,8.37
2019-02-23T00:32:30.521Z,8.63
2019-02-23T00:34:57.239Z,8.50
2019-02-23T00:37:23.203Z,9.80
2019-02-23T00:39:49.199Z,8.63
2019-02-23T00:42:15.900Z,10.10
2019-02-23T00:44:41.863Z,9.33
2019-02-23T00:47:08.589Z,9.83
2019-02-23T00:49:36.504Z,8.63
2019-02-23T00:52:02.083Z,8.57
2019-02-23T00:54:28.783Z,7.83
2019-02-23T00:56:54.779Z,9.27
2019-02-23T00:59:20.738Z,7.47
2019-02-23T01:01:46.714Z,8.20
2019-02-23T01:04:12.659Z,9.00
2019-02-23T01:06:38.649Z,8.30
2019-02-23T01:09:04.626Z,10.83
2019-02-23T01:11:30.588Z,9.57
2019-02-23T01:13:56.541Z,10.07
2019-02-23T01:16:22.501Z,10.13
2019-02-23T01:18:48.480Z,8.93
2019-02-23T01:21:14.441Z,9.43
2019-02-23T01:23:40.430Z,8.67
2019-02-23T01:26:06.403Z,8.77
2019-02-23T01:28:33.145Z,7.87
2019-02-23T01:31:00.086Z,8.93
2019-02-23T01:33:26.075Z,8.63
2019-02-23T01:35:52.049Z,8.53
2019-02-23T01:38:18.805Z,8.57
2019-02-23T01:40:44.768Z,8.67
2019-02-23T01:43:10.768Z,9.87
2019-02-23T01:45:42.258Z,9.07
2019-02-23T01:48:02.764Z,8.50
2019-02-23T01:50:28.738Z,9.13
2019-02-23T01:52:54.722Z,10.63
2019-02-23T01:55:21.437Z,9.23
2019-02-23T01:57:47.429Z,8.43
2019-02-23T02:00:13.387Z,9.00
2019-02-23T02:02:39.372Z,10.20
2019-02-23T02:05:05.336Z,9.33
2019-02-23T02:07:31.310Z,8.97
2019-02-23T02:09:57.284Z,8.23
2019-02-23T02:12:23.262Z,8.90
2019-02-23T02:14:49.236Z,8.83
2019-02-23T02:17:15.946Z,9.30
2019-02-23T02:19:41.931Z,7.73
2019-02-23T02:22:07.895Z,8.63
2019-02-23T02:24:33.873Z,8.70
2019-02-23T02:26:59.833Z,7.77
2019-02-23T02:29:25.809Z,8.83
2019-02-23T02:31:51.766Z,9.47
2019-02-23T02:34:17.746Z,8.83
2019-02-23T02:36:44.438Z,9.23
2019-02-23T02:39:10.424Z,9.40
2019-02-23T02:41:36.392Z,8.13
2019-02-23T02:44:02.364Z,8.33
2019-02-23T02:46:29.065Z,8.60
2019-02-23T02:48:55.026Z,9.10
2019-02-23T02:51:21.002Z,7.67
2019-02-23T02:53:47.000Z,7.77
2019-02-23T02:56:12.993Z,8.33
2019-02-23T02:58:39.709Z,9.27
2019-02-23T03:01:05.705Z,8.83
2019-02-23T03:03:31.650Z,9.17
2019-02-23T03:05:58.411Z,7.87
2019-02-23T03:08:25.108Z,7.70
2019-02-23T03:10:51.110Z,7.60
2019-02-23T03:13:17.066Z,9.77
2019-02-23T03:15:43.039Z,8.10
2019-02-23T03:18:08.985Z,8.23
2019-02-23T03:20:36.932Z,8.27
2019-02-23T03:23:01.752Z,7.57
2019-02-23T03:25:27.732Z,9.43
2019-02-23T03:27:53.680Z,9.20
2019-02-23T03:30:19.703Z,9.07
2019-02-23T03:32:45.689Z,8.67
2019-02-23T03:35:12.390Z,7.17
2019-02-23T03:37:38.380Z,9.70
2019-02-23T03:40:04.358Z,7.40
2019-02-23T03:42:30.368Z,7.30
2019-02-23T03:44:56.348Z,7.80
2019-02-23T03:47:22.389Z,9.50
2019-02-23T03:49:48.367Z,8.63
2019-02-23T03:52:15.092Z,7.87
2019-02-23T03:54:41.050Z,8.10
2019-02-23T03:57:07.042Z,9.17
2019-02-23T03:59:32.996Z,9.17
2019-02-23T04:01:58.991Z,8.43
2019-02-23T04:04:25.685Z,8.30
2019-02-23T04:06:51.643Z,8.13
2019-02-23T04:09:17.651Z,9.07
2019-02-23T04:11:43.607Z,8.20
2019-02-23T04:14:10.319Z,9.43
2019-02-23T04:16:36.273Z,8.83
2019-02-23T04:19:03.012Z,8.10
2019-02-23T04:21:29.749Z,8.57
2019-02-23T04:23:56.478Z,8.10
2019-02-23T04:26:22.438Z,8.47
2019-02-23T04:28:48.443Z,7.73
2019-02-23T04:31:15.158Z,9.33
2019-02-23T04:33:41.143Z,8.07
2019-02-23T04:36:07.090Z,7.60
2019-02-23T04:38:33.064Z,8.50
2019-02-23T04:40:59.057Z,7.10
2019-02-23T04:43:25.004Z,8.70
2019-02-23T04:45:51.728Z,9.83
2019-02-23T04:48:17.699Z,8.03
2019-02-23T04:50:43.690Z,6.97
2019-02-23T04:53:10.094Z,7.70
2019-02-23T04:55:36.837Z,6.63
2019-02-23T04:58:02.795Z,7.57
2019-02-23T05:00:28.801Z,8.37
2019-02-23T05:02:54.788Z,7.43
2019-02-23T05:05:20.797Z,7.57
2019-02-23T05:07:46.784Z,7.13
2019-02-23T05:10:13.514Z,8.57
2019-02-23T05:12:40.234Z,7.43
2019-02-23T05:15:06.206Z,7.60
2019-02-23T05:17:32.172Z,8.17
2019-02-23T05:19:58.129Z,7.07
2019-02-23T05:22:24.126Z,7.90
2019-02-23T05:24:53.397Z,6.83
2019-02-23T05:27:16.889Z,8.47
2019-02-23T05:29:42.843Z,8.73
2019-02-23T05:32:08.837Z,7.90
2019-02-23T05:34:34.801Z,6.57
2019-02-23T05:37:00.800Z,8.13
2019-02-23T05:39:26.782Z,7.63
2019-02-23T05:41:52.766Z,8.63
2019-02-23T05:44:18.739Z,7.70
2019-02-23T05:46:44.808Z,7.70
2019-02-23T05:49:10.833Z,8.73
2019-02-23T05:51:38.878Z,7.23
2019-02-23T05:54:03.744Z,6.50
2019-02-23T05:56:29.714Z,7.83
2019-02-23T05:58:56.435Z,7.27
2019-02-23T06:01:23.136Z,7.97
2019-02-23T06:03:49.146Z,7.17
2019-02-23T06:06:15.127Z,8.37
2019-02-23T06:08:41.870Z,7.50
2019-02-23T06:11:08.582Z,8.90
2019-02-23T06:13:34.563Z,8.30
2019-02-23T06:16:00.531Z,8.30
2019-02-23T06:18:26.520Z,8.43
2019-02-23T06:20:52.574Z,7.47
2019-02-23T06:23:18.757Z,9.60
2019-02-23T06:25:44.724Z,8.97
2019-02-23T06:28:10.685Z,7.80
2019-02-23T06:30:36.859Z,8.70
2019-02-23T06:33:02.837Z,9.23
2019-02-23T06:35:29.533Z,7.80
2019-02-23T06:37:55.496Z,8.90
2019-02-23T06:40:22.214Z,8.93
2019-02-23T06:42:48.160Z,9.63
2019-02-23T06:45:14.138Z,9.10
2019-02-23T06:47:40.099Z,8.70
2019-02-23T06:50:06.838Z,8.53
2019-02-23T06:52:33.538Z,8.00
2019-02-23T06:54:59.548Z,7.60
2019-02-23T06:57:25.502Z,8.47
2019-02-23T06:59:52.244Z,9.03
2019-02-23T07:02:18.189Z,8.43
2019-02-23T07:04:44.909Z,8.97
2019-02-23T07:07:11.173Z,8.70
2019-02-23T07:09:37.314Z,8.57
2019-02-23T07:12:03.276Z,8.07
2019-02-23T07:14:29.260Z,7.50
2019-02-23T07:16:55.229Z,8.90
2019-02-23T07:19:21.243Z,9.00
2019-02-23T07:21:47.199Z,9.63
2019-02-23T07:24:13.930Z,8.63
2019-02-23T07:26:39.891Z,8.53
2019-02-23T07:29:05.837Z,8.00
2019-02-23T07:31:31.826Z,9.87
2019-02-23T07:33:57.786Z,9.20
2019-02-23T07:36:23.829Z,8.87
2019-02-23T07:38:49.796Z,9.23
2019-02-23T07:41:15.906Z,8.47
2019-02-23T07:43:42.626Z,8.73
2019-02-23T07:46:09.361Z,8.60
2019-02-23T07:48:35.351Z,8.57
2019-02-23T07:51:01.701Z,8.50
2019-02-23T07:53:27.713Z,9.40
2019-02-23T07:55:53.705Z,8.40
2019-02-23T07:58:19.667Z,8.13
2019-02-23T08:00:45.638Z,7.87
2019-02-23T08:03:11.616Z,8.63
2019-02-23T08:05:37.597Z,7.90
2019-02-23T08:08:03.566Z,7.57
2019-02-23T08:10:29.573Z,8.57
2019-02-23T08:12:55.529Z,8.70
2019-02-23T08:15:21.519Z,7.60
2019-02-23T08:17:47.488Z,8.43
2019-02-23T08:20:13.440Z,8.37
2019-02-23T08:22:39.449Z,8.27
2019-02-23T08:25:05.412Z,8.73
2019-02-23T08:27:31.562Z,7.00
2019-02-23T08:29:57.535Z,7.67
2019-02-23T08:32:23.514Z,8.90
2019-02-23T08:34:50.210Z,7.00
2019-02-23T08:37:16.185Z,7.10
2019-02-23T08:39:42.878Z,6.53
2019-02-23T08:42:08.890Z,6.83
2019-02-23T08:44:34.881Z,6.23
2019-02-23T08:47:00.848Z,6.90
2019-02-23T08:49:26.823Z,6.07
2019-02-23T08:51:53.524Z,6.33
2019-02-23T08:54:19.512Z,6.03
2019-02-23T08:56:45.601Z,6.20
2019-02-23T08:59:12.607Z,6.73
2019-02-23T09:01:38.560Z,6.07
2019-02-23T09:04:04.530Z,6.10
2019-02-23T09:06:30.489Z,5.40
2019-02-23T09:08:56.735Z,5.33
2019-02-23T09:11:22.684Z,5.87
2019-02-23T09:13:48.669Z,5.73
2019-02-23T09:16:14.619Z,6.03
2019-02-23T09:18:41.335Z,6.03
2019-02-23T09:21:07.316Z,6.37
2019-02-23T09:23:33.276Z,5.87
2019-02-23T09:25:59.379Z,6.23
2019-02-23T09:28:25.634Z,6.40
2019-02-23T09:30:51.621Z,6.03
2019-02-23T09:33:17.591Z,6.07
2019-02-23T09:35:43.566Z,6.00
2019-02-23T09:38:09.541Z,5.87
2019-02-23T09:40:36.271Z,5.90
2019-02-23T09:43:02.225Z,5.77
2019-02-23T09:45:28.206Z,6.03
2019-02-23T09:47:54.171Z,6.50
2019-02-23T09:50:20.115Z,6.17
2019-02-23T09:52:46.082Z,6.93
2019-02-23T09:55:12.057Z,6.67
2019-02-23T09:57:38.063Z,5.77
2019-02-23T10:00:04.017Z,6.10
2019-02-23T10:02:30.016Z,5.90
2019-02-23T10:04:56.081Z,6.57
2019-02-23T10:07:22.114Z,6.10
2019-02-23T10:09:48.241Z,5.50
2019-02-23T10:12:14.227Z,5.63
2019-02-23T10:14:40.194Z,6.30
2019-02-23T10:17:06.280Z,5.80
2019-02-23T10:19:32.270Z,5.10
2019-02-23T10:21:58.246Z,6.33
2019-02-23T10:24:24.243Z,6.90
2019-02-23T10:26:50.190Z,5.80
2019-02-23T10:29:16.270Z,5.57
2019-02-23T10:31:42.347Z,6.70
2019-02-23T10:34:08.329Z,6.00
2019-02-23T10:36:34.291Z,5.77
2019-02-23T10:39:00.277Z,6.10
2019-02-23T10:41:26.249Z,5.37
2019-02-23T10:43:52.328Z,6.33
2019-02-23T10:46:18.290Z,6.83
2019-02-23T10:48:44.615Z,5.93
2019-02-23T10:51:10.580Z,5.73
2019-02-23T10:53:37.303Z,5.47
2019-02-23T10:56:04.167Z,6.37
2019-02-23T10:58:31.018Z,6.13
2019-02-23T11:00:57.005Z,5.93
2019-02-23T11:03:23.707Z,6.70
2019-02-23T11:05:49.693Z,5.77
2019-02-23T11:08:15.638Z,6.33
2019-02-23T11:10:41.699Z,6.20
2019-02-23T11:13:07.666Z,5.63
2019-02-23T11:15:34.474Z,6.13
2019-02-23T11:18:02.819Z,5.70
2019-02-23T11:20:26.504Z,6.07
2019-02-23T11:22:52.469Z,6.33
2019-02-23T11:25:19.270Z,5.90
2019-02-23T11:27:45.252Z,6.53
2019-02-23T11:30:11.518Z,7.07
2019-02-23T11:32:37.502Z,6.13
2019-02-23T11:35:03.440Z,5.77
2019-02-23T11:37:29.750Z,6.60
2019-02-23T11:39:55.686Z,6.33
2019-02-23T11:42:21.659Z,5.87
2019-02-23T11:44:47.656Z,6.07
2019-02-23T11:47:13.677Z,6.27
2019-02-23T11:49:39.639Z,6.27
2019-02-23T11:52:06.425Z,6.63
2019-02-23T11:54:32.399Z,6.30
2019-02-23T11:56:58.365Z,6.50
2019-02-23T11:59:24.339Z,6.03
2019-02-23T12:01:51.042Z,6.20
2019-02-23T12:04:17.045Z,5.90
2019-02-23T12:06:43.021Z,6.27
2019-02-23T12:09:09.030Z,6.67
2019-02-23T12:11:35.023Z,6.27
2019-02-23T12:14:00.995Z,6.00
2019-02-23T12:16:26.947Z,6.40
2019-02-23T12:18:53.741Z,6.47
2019-02-23T12:21:19.931Z,6.43
2019-02-23T12:23:45.948Z,7.30
2019-02-23T12:26:11.901Z,6.83
2019-02-23T12:28:37.956Z,7.03
2019-02-23T12:31:04.648Z,6.83
2019-02-23T12:33:30.661Z,6.30
2019-02-23T12:35:56.584Z,6.77
2019-02-23T12:38:22.518Z,7.27
2019-02-23T12:40:48.489Z,6.27
2019-02-23T12:43:15.170Z,5.70
2019-02-23T12:45:41.177Z,6.10
2019-02-23T12:48:07.863Z,5.97
2019-02-23T12:50:33.826Z,6.73
2019-02-23T12:53:00.526Z,5.47
2019-02-23T12:55:26.577Z,6.00
2019-02-23T12:57:52.541Z,6.77
2019-02-23T13:00:18.533Z,7.00
2019-02-23T13:02:45.229Z,6.27
2019-02-23T13:05:11.194Z,7.33
2019-02-23T13:07:37.887Z,7.00
2019-02-23T13:10:03.882Z,6.67
2019-02-23T13:12:29.848Z,6.13
2019-02-23T13:14:55.858Z,5.97
2019-02-23T13:17:21.832Z,6.87
2019-02-23T13:19:48.510Z,7.40
2019-02-23T13:22:14.689Z,6.37
2019-02-23T13:24:41.387Z,7.10
2019-02-23T13:27:07.345Z,6.60
2019-02-23T13:29:34.057Z,6.10
2019-02-23T13:32:00.041Z,6.90
2019-02-23T13:34:26.146Z,7.07
2019-02-23T13:36:52.875Z,6.10
2019-02-23T13:39:18.839Z,6.27
2019-02-23T13:41:44.795Z,6.83
2019-02-23T13:44:10.759Z,6.27
2019-02-23T13:46:37.449Z,6.53
2019-02-23T13:49:03.431Z,6.90
2019-02-23T13:51:29.400Z,6.40
2019-02-23T13:53:55.363Z,6.43
2019-02-23T13:56:22.056Z,7.00
2019-02-23T13:58:48.048Z,6.60
2019-02-23T14:01:13.998Z,6.20
2019-02-23T14:03:39.981Z,7.23
2019-02-23T14:06:05.948Z,6.73
2019-02-23T14:08:32.027Z,7.10
2019-02-23T14:10:58.019Z,7.00
2019-02-23T14:13:24.741Z,6.63
2019-02-23T14:15:50.711Z,7.13
2019-02-23T14:18:17.398Z,7.93
2019-02-23T14:20:43.388Z,7.20
2019-02-23T14:23:09.383Z,7.03
2019-02-23T14:25:36.105Z,7.33
2019-02-23T14:28:02.202Z,7.50
2019-02-23T14:30:28.192Z,7.03
2019-02-23T14:32:54.162Z,6.97
2019-02-23T14:35:20.111Z,7.00
2019-02-23T14:37:46.263Z,7.17
2019-02-23T14:40:12.242Z,7.17
2019-02-23T14:42:38.506Z,7.57
2019-02-23T14:45:04.518Z,6.93
2019-02-23T14:47:31.234Z,7.43
2019-02-23T14:49:57.198Z,7.93
2019-02-23T14:52:23.171Z,6.97
2019-02-23T14:54:49.154Z,7.23
2019-02-23T14:57:15.156Z,7.90
2019-02-23T14:59:41.870Z,7.20
2019-02-23T15:02:07.832Z,7.00
2019-02-23T15:04:33.796Z,7.37
2019-02-23T15:06:59.764Z,6.97
2019-02-23T15:09:26.487Z,7.23
2019-02-23T15:11:52.508Z,7.67
2019-02-23T15:14:18.784Z,6.97
2019-02-23T15:16:44.736Z,7.20
2019-02-23T15:19:10.747Z,7.90
2019-02-23T15:21:36.710Z,6.73
2019-02-23T15:24:02.671Z,7.07
2019-02-23T15:26:28.647Z,7.60
2019-02-23T15:28:54.590Z,7.53
2019-02-23T15:31:21.308Z,7.17
2019-02-23T15:33:54.059Z,7.33
2019-02-23T15:36:20.036Z,7.27
2019-02-23T15:38:46.722Z,7.13
2019-02-23T15:41:13.387Z,7.47
2019-02-23T15:43:38.719Z,7.17
2019-02-23T15:46:04.771Z,7.57
2019-02-23T15:48:30.760Z,7.60
2019-02-23T15:50:56.747Z,7.47
2019-02-23T15:53:23.578Z,7.07
2019-02-23T15:55:49.574Z,8.20
2019-02-23T15:58:15.560Z,7.53
2019-02-23T16:00:42.262Z,7.83
2019-02-23T16:03:08.220Z,8.03
2019-02-23T16:05:34.175Z,8.37
2019-02-23T16:08:00.166Z,7.57
2019-02-23T16:10:26.119Z,7.77
2019-02-23T16:12:52.092Z,8.83
2019-02-23T16:15:18.822Z,7.57
2019-02-23T16:17:44.795Z,8.13
2019-02-23T16:20:11.486Z,8.10
2019-02-23T16:22:37.469Z,6.90
2019-02-23T16:25:03.414Z,7.90
2019-02-23T16:27:29.383Z,8.43
2019-02-23T16:29:55.358Z,7.23
2019-02-23T16:32:21.321Z,7.77
2019-02-23T16:34:47.331Z,7.40
2019-02-23T16:37:13.279Z,8.20
2019-02-23T16:39:40.573Z,7.23
2019-02-23T16:42:06.031Z,7.53
2019-02-23T16:44:32.010Z,6.67
2019-02-23T16:46:57.960Z,9.50
2019-02-23T16:49:23.927Z,10.13
2019-02-23T16:51:50.611Z,8.17
2019-02-23T16:54:16.616Z,7.93
2019-02-23T16:56:42.587Z,8.27
2019-02-23T16:59:08.562Z,8.13
2019-02-23T17:01:34.530Z,8.17
2019-02-23T17:04:00.511Z,8.73
2019-02-23T17:06:26.452Z,7.50
2019-02-23T17:08:52.416Z,7.97
2019-02-23T17:11:19.138Z,8.40
2019-02-23T17:13:45.108Z,8.37
2019-02-23T17:16:11.089Z,8.50
2019-02-23T17:18:37.093Z,8.37
2019-02-23T17:21:03.100Z,8.93
2019-02-23T17:23:29.085Z,9.30
2019-02-23T17:26:04.340Z,8.87
2019-02-23T17:28:21.806Z,9.57
2019-02-23T17:30:47.803Z,8.80
2019-02-23T17:33:13.759Z,8.87
2019-02-23T17:35:39.755Z,9.17
2019-02-23T17:38:15.763Z,8.47
2019-02-23T17:40:31.757Z,8.87
2019-02-23T17:42:58.453Z,9.43
2019-02-23T17:45:24.451Z,9.07
2019-02-23T17:47:50.411Z,8.57
2019-02-23T17:50:16.394Z,8.90
2019-02-23T17:52:42.374Z,8.80
2019-02-23T17:55:09.063Z,9.10
2019-02-23T17:57:35.081Z,9.17
2019-02-23T18:00:01.077Z,10.17
2019-02-23T18:02:27.807Z,10.70
2019-02-23T18:04:54.492Z,10.80
2019-02-23T18:07:20.472Z,11.17
2019-02-23T18:09:47.144Z,11.23
2019-02-23T18:12:13.097Z,10.17
2019-02-23T18:14:39.105Z,11.33
2019-02-23T18:17:05.083Z,12.20
2019-02-23T18:19:31.807Z,10.27
2019-02-23T18:21:58.489Z,10.30
2019-02-23T18:24:24.479Z,10.77
2019-02-23T18:26:51.167Z,10.03
2019-02-23T18:29:17.179Z,10.53
2019-02-23T18:31:43.123Z,10.03
2019-02-23T18:34:09.088Z,11.27
2019-02-23T18:36:35.780Z,9.97
2019-02-23T18:39:01.769Z,9.77
2019-02-23T18:41:27.730Z,11.47
2019-02-23T18:43:53.724Z,10.17
2019-02-23T18:46:19.676Z,10.40
2019-02-23T18:48:45.659Z,11.37
2019-02-23T18:51:11.624Z,10.07
2019-02-23T18:53:37.613Z,10.60
2019-02-23T18:56:03.572Z,11.10
2019-02-23T18:58:29.544Z,10.97
2019-02-23T19:00:55.505Z,11.40
2019-02-23T19:03:21.463Z,10.47
2019-02-23T19:05:50.163Z,10.17
2019-02-23T19:08:14.223Z,10.20
2019-02-23T19:10:40.958Z,9.40
2019-02-23T19:13:08.479Z,10.60
2019-02-23T19:15:32.975Z,10.00
2019-02-23T19:17:58.932Z,9.93
2019-02-23T19:20:24.916Z,9.10
2019-02-23T19:22:50.859Z,10.60
2019-02-23T19:25:16.877Z,9.27
2019-02-23T19:27:42.835Z,9.10
2019-02-23T19:30:09.539Z,8.73
2019-02-23T19:32:35.507Z,9.77
2019-02-23T19:35:02.391Z,9.47
2019-02-23T19:37:28.716Z,9.77
2019-02-23T19:39:54.678Z,9.87
2019-02-23T19:42:20.683Z,9.87
2019-02-23T19:44:46.643Z,10.03
2019-02-23T19:47:13.373Z,10.77
2019-02-23T19:49:40.089Z,8.87
2019-02-23T19:52:06.089Z,8.83
2019-02-23T19:54:32.039Z,8.97
2019-02-23T19:56:58.015Z,9.83
2019-02-23T19:59:24.005Z,9.80
2019-02-23T20:01:49.982Z,9.87
2019-02-23T20:04:15.932Z,8.87
2019-02-23T20:06:41.931Z,9.70
2019-02-23T20:09:07.882Z,8.93
2019-02-23T20:11:33.869Z,7.73
2019-02-23T20:13:59.864Z,7.57
2019-02-23T20:16:25.810Z,8.83
2019-02-23T20:18:51.785Z,8.67
2019-02-23T20:21:17.734Z,8.37
2019-02-23T20:23:43.721Z,7.67
2019-02-23T20:26:09.682Z,8.47
2019-02-23T20:28:35.717Z,7.97
2019-02-23T20:31:01.907Z,8.10
2019-02-23T20:33:28.749Z,8.30
2019-02-23T20:35:55.446Z,8.20
2019-02-23T20:38:22.296Z,8.57
2019-02-23T20:40:48.383Z,7.47
2019-02-23T20:43:15.288Z,7.97
2019-02-23T20:45:41.300Z,7.57
2019-02-23T20:48:08.036Z,8.27
2019-02-23T20:50:34.201Z,7.77
2019-02-23T20:53:00.235Z,8.07
2019-02-23T20:55:26.256Z,7.97
2019-02-23T20:57:52.255Z,7.83
2019-02-23T21:00:18.246Z,7.93
2019-02-23T21:02:44.215Z,8.20
2019-02-23T21:05:10.227Z,8.00
2019-02-23T21:07:36.163Z,7.67
2019-02-23T21:10:02.232Z,7.40
2019-02-23T21:12:28.205Z,7.37
2019-02-23T21:14:54.951Z,6.90
2019-02-23T21:17:20.890Z,8.23
2019-02-23T21:19:47.781Z,7.57
2019-02-23T21:22:13.737Z,8.30
2019-02-23T21:24:39.736Z,6.60
2019-02-23T21:27:12.828Z,7.63
2019-02-23T21:29:32.541Z,7.17
2019-02-23T21:31:58.506Z,7.67
2019-02-23T21:34:24.452Z,7.70
2019-02-23T21:36:51.734Z,7.07
2019-02-23T21:39:18.709Z,7.17
2019-02-23T21:41:44.675Z,7.73
2019-02-23T21:44:11.384Z,6.60
2019-02-23T21:46:37.541Z,8.27
2019-02-23T21:49:03.548Z,7.10
2019-02-23T21:51:29.559Z,7.83
2019-02-23T21:53:55.531Z,7.77
2019-02-23T21:56:21.535Z,7.43
2019-02-23T21:58:48.350Z,7.57
2019-02-23T22:01:14.644Z,7.07
2019-02-23T22:03:41.457Z,7.37
2019-02-23T22:06:07.816Z,8.07
2019-02-23T22:08:33.800Z,7.13
2019-02-23T22:11:00.119Z,7.53
2019-02-23T22:13:26.085Z,7.03
2019-02-23T22:15:52.815Z,7.23
2019-02-23T22:18:19.517Z,7.57
2019-02-23T22:20:45.498Z,7.03
2019-02-23T22:23:11.501Z,7.13
2019-02-23T22:25:38.180Z,8.40
2019-02-23T22:28:04.172Z,7.50
2019-02-23T22:30:30.940Z,7.63
2019-02-23T22:32:56.931Z,7.73
2019-02-23T22:35:23.620Z,7.03
2019-02-23T22:37:49.603Z,7.27
2019-02-23T22:40:15.558Z,7.27
2019-02-23T22:42:41.539Z,7.73
2019-02-23T22:45:08.225Z,7.47
2019-02-23T22:47:34.248Z,7.10
2019-02-23T22:50:00.267Z,6.30
2019-02-23T22:52:26.198Z,7.77
2019-02-23T22:54:52.194Z,7.77
2019-02-23T22:57:18.254Z,7.00
2019-02-23T22:59:44.374Z,7.97
2019-02-23T23:02:10.400Z,7.47
2019-02-23T23:04:36.427Z,7.60
2019-02-23T23:07:02.382Z,8.33
2019-02-23T23:09:29.152Z,8.37
2019-02-23T23:11:55.193Z,7.87
2019-02-23T23:14:21.963Z,7.20
2019-02-23T23:16:47.910Z,7.40
2019-02-23T23:19:13.882Z,7.63
2019-02-23T23:21:39.842Z,7.23
2019-02-23T23:24:05.818Z,7.13
2019-02-23T23:26:31.785Z,6.80
2019-02-23T23:28:57.760Z,6.57
2019-02-23T23:31:23.751Z,7.23
2019-02-23T23:33:49.759Z,6.73
2019-02-23T23:36:15.740Z,8.00
2019-02-23T23:38:42.495Z,6.97
2019-02-23T23:41:08.489Z,6.60
2019-02-23T23:43:34.867Z,6.73
2019-02-23T23:46:01.877Z,7.53
2019-02-23T23:48:28.826Z,7.53
2019-02-23T23:50:53.879Z,7.10
2019-02-23T23:53:20.612Z,6.47
2019-02-23T23:55:47.354Z,6.60
2019-02-23T23:58:13.407Z,6.93
